Time;durP1;ratioP1;P1;durP2;ratioP2;P2;SDS_P1;SDS_P2;PMS_P1;PMS_P2;Temp;Humidity;BMP_temperature;BMP_pressure;BME280_temperature;BME280_humidity;BME280_pressure;Samples;Min_cycle;Max_cycle;Signal;HPM_P1;HPM_P2
2022/09/17 00:03:17;;;;;;;4.60;1.80;;;;;;;8.34;100.00;95598.13;10366823;28;20225;-73
2022/09/17 00:08:18;;;;;;;3.13;1.80;;;;;;;8.39;100.00;95603.66;10350291;28;20204;-73
2022/09/17 00:13:18;;;;;;;7.27;2.27;;;;;;;8.28;100.00;95611.84;10366856;28;20189;-73
2022/09/17 00:18:20;;;;;;;3.30;1.67;;;;;;;8.33;100.00;95617.38;10367386;28;20212;-72
2022/09/17 00:23:20;;;;;;;4.67;1.73;;;;;;;8.33;100.00;95618.22;10366729;28;20217;-73
2022/09/17 00:28:20;;;;;;;8.33;1.80;;;;;;;8.35;100.00;95626.66;10374617;28;20190;-73
2022/09/17 00:33:21;;;;;;;4.77;1.80;;;;;;;8.33;100.00;95614.75;10374555;28;20220;-72
2022/09/17 00:38:21;;;;;;;2.93;1.90;;;;;;;8.26;100.00;95613.84;10374600;28;20236;-72
2022/09/17 00:43:42;;;;;;;10.37;2.47;;;;;;;8.28;100.00;95617.09;10374370;28;20221;-72
2022/09/17 00:48:44;;;;;;;4.93;1.70;;;;;;;8.12;100.00;95626.59;10356507;28;20649;-73
2022/09/17 00:53:44;;;;;;;6.60;2.23;;;;;;;8.08;100.00;95611.44;10353702;28;20197;-73
2022/09/17 00:58:45;;;;;;;7.13;2.30;;;;;;;8.16;100.00;95599.19;10355953;28;20240;-73
2022/09/17 01:03:45;;;;;;;7.53;2.10;;;;;;;8.29;100.00;95618.72;10356056;28;20315;-73
2022/09/17 01:09:06;;;;;;;7.10;1.50;;;;;;;8.33;100.00;95593.88;10373569;28;20293;-73
2022/09/17 01:14:32;;;;;;;6.63;1.53;;;;;;;8.38;100.00;95599.44;10355467;28;20185;-72
2022/09/17 01:20:04;;;;;;;5.50;1.40;;;;;;;8.34;100.00;95596.31;10356305;28;20212;-73
2022/09/17 01:25:21;;;;;;;11.03;2.27;;;;;;;8.23;100.00;95601.94;10355697;28;20213;-73
2022/09/17 01:30:34;;;;;;;3.73;1.70;;;;;;;8.20;100.00;95594.44;10355789;28;20725;-73
2022/09/17 01:36:00;;;;;;;4.53;1.80;;;;;;;8.19;100.00;95606.69;10354461;28;20213;-72
2022/09/17 01:41:05;;;;;;;4.90;1.97;;;;;;;8.25;100.00;95614.81;10355014;28;20724;-73
2022/09/17 01:46:10;;;;;;;7.63;1.60;;;;;;;8.34;100.00;95606.78;10372278;28;20201;-73
2022/09/17 01:51:15;;;;;;;12.10;1.83;;;;;;;8.39;100.00;95617.53;10353993;28;20200;-73
2022/09/17 01:56:17;;;;;;;8.33;1.90;;;;;;;8.36;100.00;95607.44;10354503;28;20208;-72
2022/09/17 02:01:18;;;;;;;4.87;1.53;;;;;;;8.37;100.00;95603.00;10353952;28;20247;-73
2022/09/17 02:06:26;;;;;;;6.70;1.60;;;;;;;8.30;100.00;95599.44;10371896;28;20661;-73
2022/09/17 02:11:26;;;;;;;4.70;1.80;;;;;;;8.37;100.00;95600.41;10354069;28;20196;-73
2022/09/17 02:16:29;;;;;;;8.50;1.57;;;;;;;8.32;100.00;95592.28;10371473;28;20568;-73
2022/09/17 02:21:40;;;;;;;5.17;1.80;;;;;;;8.33;100.00;95599.94;10353314;28;20247;-73
2022/09/17 02:26:45;;;;;;;4.93;1.47;;;;;;;8.38;100.00;95587.19;10370813;28;20584;-73
2022/09/17 02:31:45;;;;;;;8.23;1.47;;;;;;;8.34;100.00;95591.09;10353053;28;20740;-73
2022/09/17 02:36:46;;;;;;;5.50;1.80;;;;;;;8.44;100.00;95596.16;10370201;28;20216;-73
2022/09/17 02:42:09;;;;;;;4.63;1.50;;;;;;;8.41;100.00;95591.25;10369918;28;20252;-73
2022/09/17 02:47:22;;;;;;;7.00;1.70;;;;;;;8.26;100.00;95606.00;10352260;28;20201;-73
2022/09/17 02:52:56;;;;;;;6.70;1.37;;;;;;;8.26;100.00;95608.63;10351024;28;20189;-73
2022/09/17 02:58:13;;;;;;;6.97;2.00;;;;;;;8.18;100.00;95604.25;10352572;28;20199;-72
2022/09/17 03:03:30;;;;;;;4.40;1.90;;;;;;;8.13;100.00;95609.97;10349550;28;20217;-73
2022/09/17 03:08:36;;;;;;;10.50;1.87;;;;;;;8.31;100.00;95607.09;10346420;28;20200;-73
2022/09/17 03:13:37;;;;;;;3.23;2.03;;;;;;;8.04;100.00;95601.34;10361353;28;20182;-73
2022/09/17 03:18:37;;;;;;;5.30;1.63;;;;;;;8.21;100.00;95612.53;10362507;28;20197;-73
2022/09/17 03:23:38;;;;;;;10.90;2.07;;;;;;;8.12;100.00;95613.56;10361779;28;20587;-73
2022/09/17 03:28:38;;;;;;;6.83;1.70;;;;;;;8.02;100.00;95615.53;10361664;28;20617;-73
2022/09/17 03:33:38;;;;;;;5.13;2.33;;;;;;;7.93;100.00;95619.97;10361397;28;20457;-73
2022/09/17 03:38:39;;;;;;;5.03;1.90;;;;;;;8.00;100.00;95612.28;10361767;28;20217;-73
2022/09/17 03:43:39;;;;;;;9.43;2.37;;;;;;;8.07;100.00;95623.69;10361294;28;20312;-73
2022/09/17 03:48:40;;;;;;;5.10;2.33;;;;;;;7.96;100.00;95630.06;10360540;28;20661;-73
2022/09/17 03:53:40;;;;;;;8.67;2.47;;;;;;;8.02;100.00;95624.19;10361345;28;20739;-73
2022/09/17 03:58:40;;;;;;;6.03;1.87;;;;;;;8.00;100.00;95620.91;10364603;28;20294;-72
2022/09/17 04:03:41;;;;;;;8.37;2.90;;;;;;;7.99;100.00;95618.47;10366894;28;20216;-74
2022/09/17 04:08:42;;;;;;;13.80;5.57;;;;;;;7.91;100.00;95615.91;10368004;28;20312;-73
2022/09/17 04:13:42;;;;;;;7.10;3.63;;;;;;;7.93;100.00;95624.34;10367343;28;20881;-73
2022/09/17 04:18:43;;;;;;;5.50;2.93;;;;;;;7.78;100.00;95632.88;10367670;28;20197;-73
2022/09/17 04:23:43;;;;;;;5.83;4.27;;;;;;;7.66;100.00;95644.63;10367423;28;20217;-73
2022/09/17 04:28:43;;;;;;;6.30;2.87;;;;;;;7.80;100.00;95643.94;10367381;28;20213;-73
2022/09/17 04:33:44;;;;;;;4.73;2.57;;;;;;;7.84;100.00;95631.38;10366636;28;20185;-73
2022/09/17 04:38:47;;;;;;;4.03;2.20;;;;;;;7.85;100.00;95638.22;10366978;28;20749;-73
2022/09/17 04:43:48;;;;;;;2.77;2.30;;;;;;;7.80;100.00;95632.72;10366804;28;20264;-71
2022/09/17 04:48:48;;;;;;;4.17;2.60;;;;;;;7.63;100.00;95645.75;10366955;28;20462;-72
2022/09/17 04:53:48;;;;;;;5.23;2.70;;;;;;;7.72;100.00;95646.56;10366509;28;20196;-74
2022/09/17 04:58:49;;;;;;;2.30;2.10;;;;;;;7.80;100.00;95648.34;10366826;28;20265;-74
2022/09/17 05:03:49;;;;;;;4.33;2.13;;;;;;;7.66;100.00;95642.00;10366306;28;20217;-73
2022/09/17 05:08:49;;;;;;;5.13;2.50;;;;;;;7.90;100.00;95645.56;10366615;28;20312;-73
2022/09/17 05:13:50;;;;;;;2.87;2.30;;;;;;;7.91;100.00;95641.97;10370336;28;20193;-73
2022/09/17 05:18:50;;;;;;;3.20;2.13;;;;;;;7.88;100.00;95648.31;10373913;28;20190;-73
2022/09/17 05:23:50;;;;;;;2.93;2.17;;;;;;;7.85;100.00;95659.09;10373180;28;20367;-74
2022/09/17 05:28:51;;;;;;;6.20;3.47;;;;;;;7.68;100.00;95653.09;10373328;28;20225;-73
2022/09/17 05:33:51;;;;;;;4.07;3.47;;;;;;;7.65;100.00;95663.84;10372569;28;20196;-73
2022/09/17 05:38:51;;;;;;;7.13;4.77;;;;;;;7.79;100.00;95662.34;10372414;28;20229;-73
2022/09/17 05:43:52;;;;;;;3.43;3.10;;;;;;;7.89;100.00;95670.81;10372582;28;20316;-74
2022/09/17 05:48:55;;;;;;;5.97;3.50;;;;;;;7.80;100.00;95672.63;10372300;28;20228;-73
2022/09/17 05:53:55;;;;;;;4.10;2.73;;;;;;;7.92;100.00;95670.50;10371919;28;20181;-73
2022/09/17 05:58:56;;;;;;;2.97;2.77;;;;;;;8.01;100.00;95669.50;10372381;28;20323;-73
2022/09/17 06:03:57;;;;;;;3.00;2.57;;;;;;;8.03;100.00;95672.75;10380020;28;20312;-74
2022/09/17 06:09:00;;;;;;;5.47;3.33;;;;;;;8.00;100.00;95667.84;10372101;28;20199;-73
2022/09/17 06:14:01;;;;;;;2.73;2.50;;;;;;;8.11;100.00;95669.31;10371223;28;20196;-73
2022/09/17 06:19:02;;;;;;;3.00;1.60;;;;;;;8.17;100.00;95668.63;10371781;28;20189;-74
2022/09/17 06:24:03;;;;;;;2.73;1.57;;;;;;;8.15;100.00;95667.19;10370924;28;20650;-73
2022/09/17 06:29:03;;;;;;;1.93;1.57;;;;;;;8.57;100.00;95671.31;10371858;28;20185;-74
2022/09/17 06:34:04;;;;;;;1.50;1.40;;;;;;;8.44;100.00;95671.84;10369119;28;20193;-74
2022/09/17 06:39:05;;;;;;;1.03;1.03;;;;;;;8.57;100.00;95664.31;10371379;28;20551;-74
2022/09/17 06:44:05;;;;;;;1.10;1.10;;;;;;;8.38;100.00;95659.44;10371424;28;20308;-74
2022/09/17 06:49:05;;;;;;;1.50;1.40;;;;;;;8.48;100.00;95670.50;10366628;28;20197;-73
2022/09/17 06:54:06;;;;;;;1.93;1.00;;;;;;;8.50;100.00;95672.97;10352097;28;20668;-73
2022/09/17 06:59:07;;;;;;;1.40;1.10;;;;;;;8.72;100.00;95674.03;10369806;28;20716;-73
2022/09/17 07:04:07;;;;;;;0.77;0.77;;;;;;;8.35;100.00;95662.41;10369286;28;20220;-73
2022/09/17 07:09:08;;;;;;;0.80;0.80;;;;;;;8.38;100.00;95675.09;10369442;28;20201;-73
2022/09/17 07:14:08;;;;;;;0.87;0.87;;;;;;;8.66;100.00;95680.72;10363611;28;20281;-73
2022/09/17 07:19:09;;;;;;;0.67;0.67;;;;;;;8.56;100.00;95677.53;10328570;28;20630;-72
2022/09/17 07:24:09;;;;;;;0.90;0.90;;;;;;;8.68;100.00;95696.22;10328125;28;20225;-73
2022/09/17 07:29:11;;;;;;;0.90;0.90;;;;;;;8.63;100.00;95703.75;10328272;28;20206;-73
2022/09/17 07:34:11;;;;;;;5.13;2.07;;;;;;;8.76;100.00;95711.88;10326747;28;20201;-73
2022/09/17 07:39:12;;;;;;;3.77;2.13;;;;;;;8.79;100.00;95721.97;10328009;28;20538;-73
2022/09/17 07:44:12;;;;;;;4.47;2.77;;;;;;;8.74;100.00;95743.38;10327262;28;20733;-74
2022/09/17 07:49:12;;;;;;;7.77;3.17;;;;;;;8.75;100.00;95749.41;10327631;28;20193;-73
2022/09/17 07:54:13;;;;;;;7.90;4.30;;;;;;;8.64;100.00;95755.00;10327143;28;20344;-73
2022/09/17 07:59:13;;;;;;;16.00;5.77;;;;;;;8.59;100.00;95760.72;10327559;28;20237;-74
2022/09/17 08:04:14;;;;;;;10.93;5.20;;;;;;;8.77;100.00;95762.28;10326951;28;20218;-74
2022/09/17 08:09:15;;;;;;;9.37;4.63;;;;;;;8.78;100.00;95769.97;10327322;28;20309;-74
2022/09/17 08:14:15;;;;;;;9.27;5.07;;;;;;;8.78;100.00;95772.56;10326781;28;20210;-74
2022/09/17 08:19:17;;;;;;;9.10;5.33;;;;;;;8.96;100.00;95782.78;10324657;28;20726;-73
2022/09/17 08:24:18;;;;;;;12.73;6.47;;;;;;;9.02;100.00;95784.72;10326303;28;20221;-73
2022/09/17 08:29:18;;;;;;;19.47;5.73;;;;;;;9.16;100.00;95780.59;10327216;28;20543;-73
2022/09/17 08:34:18;;;;;;;14.13;5.43;;;;;;;8.98;100.00;95774.78;10325341;28;20610;-73
2022/09/17 08:39:19;;;;;;;8.60;4.33;;;;;;;9.06;100.00;95780.78;10326808;28;20245;-74
2022/09/17 08:44:29;;;;;;;9.90;4.97;;;;;;;9.05;100.00;95779.16;10326224;28;20224;-73
2022/09/17 08:49:36;;;;;;;16.47;5.13;;;;;;;9.12;100.00;95781.91;10332771;28;20600;-73
2022/09/17 08:55:17;;;;;;;9.93;4.87;;;;;;;9.49;100.00;95783.00;10333928;28;20565;-73
2022/09/17 09:00:19;;;;;;;12.40;4.43;;;;;;;9.96;100.00;95771.56;10208824;29;20286;-74
2022/09/17 09:05:22;;;;;;;12.43;5.10;;;;;;;10.18;100.00;95756.84;10303332;28;20205;-73
2022/09/17 09:10:25;;;;;;;16.53;3.70;;;;;;;9.48;100.00;95757.88;10341911;28;20197;-74
2022/09/17 09:15:46;;;;;;;10.40;4.43;;;;;;;9.61;100.00;95773.78;10374165;28;20181;-74
2022/09/17 09:20:54;;;;;;;10.90;3.70;;;;;;;10.02;100.00;95777.91;10355351;28;20216;-74
2022/09/17 09:26:16;;;;;;;14.13;4.87;;;;;;;10.81;100.00;95784.56;10355720;28;20786;-74
2022/09/17 09:31:44;;;;;;;11.45;3.53;;;;;;;11.88;100.00;95780.53;10372405;28;20593;-74
2022/09/17 09:36:45;;;;;;;9.10;2.53;;;;;;;11.49;100.00;95758.16;10372363;28;20658;-74
2022/09/17 09:41:53;;;;;;;6.72;2.47;;;;;;;10.75;100.00;95759.06;10355135;28;20232;-73
2022/09/17 09:47:15;;;;;;;8.73;2.60;;;;;;;11.14;100.00;95756.16;10338562;28;20190;-74
2022/09/17 09:52:34;;;;;;;4.22;2.15;;;;;;;11.26;100.00;95748.63;10371985;28;20190;-73
2022/09/17 09:57:43;;;;;;;13.20;2.55;;;;;;;11.70;100.00;95745.06;10371367;28;20193;-73
2022/09/17 10:02:44;;;;;;;7.28;2.30;;;;;;;11.36;100.00;95728.19;10371008;28;20233;-74
2022/09/17 10:07:45;;;;;;;9.10;2.50;;;;;;;10.85;100.00;95749.16;10371570;28;20199;-74
2022/09/17 10:12:45;;;;;;;9.77;2.92;;;;;;;10.33;100.00;95771.78;10353519;28;20185;-74
2022/09/17 10:17:47;;;;;;;12.48;3.00;;;;;;;11.02;100.00;95768.91;10370890;28;20564;-74
2022/09/17 10:22:47;;;;;;;15.07;3.50;;;;;;;11.14;100.00;95760.59;10370486;28;20244;-74
2022/09/17 10:27:48;;;;;;;8.15;2.40;;;;;;;11.60;100.00;95753.22;10370417;28;20300;-74
2022/09/17 10:33:31;;;;;;;8.32;2.38;;;;;;;11.60;100.00;95734.84;10351792;28;20197;-74
2022/09/17 10:38:35;;;;;;;8.85;2.20;;;;;;;11.99;100.00;95747.75;10370069;28;20295;-73
2022/09/17 10:43:35;;;;;;;5.05;1.83;;;;;;;11.93;100.00;95739.63;10369437;28;20705;-73
2022/09/17 10:48:42;;;;;;;4.35;2.15;;;;;;;10.81;100.00;95771.44;10352275;28;20280;-74
2022/09/17 10:54:12;;;;;;;4.70;1.50;;;;;;;10.87;100.00;95768.94;10369486;28;20193;-73
2022/09/17 10:59:18;;;;;;;4.77;1.40;;;;;;;11.15;100.00;95757.78;10351393;28;20383;-74
2022/09/17 11:04:25;;;;;;;5.93;1.38;;;;;;;12.39;100.00;95771.69;10368854;28;20233;-73
2022/09/17 11:09:46;;;;;;;5.38;1.25;;;;;;;13.87;100.00;95719.53;10350490;28;20247;-73
2022/09/17 11:14:50;;;;;;;5.82;1.30;;;;;;;14.41;93.26;95662.34;10350603;28;20197;-73
2022/09/17 11:20:39;;;;;;;8.43;1.83;;;;;;;14.79;92.51;95668.75;10368513;28;20596;-73
2022/09/17 11:25:46;;;;;;;6.63;1.98;;;;;;;13.83;93.75;95701.72;10322498;28;20563;-74
2022/09/17 11:31:19;;;;;;;7.32;1.95;;;;;;;11.47;100.00;95734.75;10350248;28;20185;-72
2022/09/17 11:36:26;;;;;;;6.05;1.77;;;;;;;10.55;100.00;95758.81;10350596;28;20689;-74
2022/09/17 11:41:30;;;;;;;9.20;1.77;;;;;;;10.27;100.00;95767.22;10349880;28;20225;-71
2022/09/17 11:46:34;;;;;;;5.23;1.63;;;;;;;10.85;100.00;95765.66;10350331;28;20224;-74
2022/09/17 11:51:46;;;;;;;3.58;1.30;;;;;;;10.87;100.00;95761.06;10333739;28;20340;-72
2022/09/17 11:56:50;;;;;;;4.55;1.48;;;;;;;10.63;100.00;95772.63;10367700;28;20200;-73
2022/09/17 12:01:59;;;;;;;9.73;1.70;;;;;;;11.89;100.00;95748.06;10367082;28;20509;-74
2022/09/17 12:07:19;;;;;;;5.03;1.38;;;;;;;12.58;100.00;95733.44;10349952;28;20254;-73
2022/09/17 12:12:22;;;;;;;6.22;1.23;;;;;;;13.31;100.00;95719.81;10367065;28;20191;-73
2022/09/17 12:17:26;;;;;;;10.73;2.35;;;;;;;14.01;91.29;95677.38;10349543;28;20248;-73
2022/09/17 12:22:31;;;;;;;6.63;1.70;;;;;;;12.32;95.46;95730.44;10353457;28;20221;-73
2022/09/17 12:27:48;;;;;;;6.30;1.50;;;;;;;11.78;100.00;95755.41;10375106;28;20251;-73
2022/09/17 12:33:04;;;;;;;8.10;1.80;;;;;;;11.86;100.00;95753.69;10356791;28;20643;-73
2022/09/17 12:38:34;;;;;;;8.25;1.67;;;;;;;10.83;100.00;95738.03;10374713;28;20230;-73
2022/09/17 12:43:59;;;;;;;13.50;1.65;;;;;;;10.70;100.00;95743.91;10356901;28;20220;-73
2022/09/17 12:49:25;;;;;;;6.35;1.45;;;;;;;10.79;100.00;95729.72;10357236;28;20729;-73
2022/09/17 12:54:47;;;;;;;10.52;2.53;;;;;;;11.67;100.00;95707.88;10333341;28;20189;-73
2022/09/17 12:59:52;;;;;;;8.85;1.80;;;;;;;11.70;100.00;95703.09;10316516;28;20272;-73
2022/09/17 13:05:24;;;;;;;5.00;1.40;;;;;;;12.82;100.00;95683.03;10333508;28;20206;-73
2022/09/17 13:10:39;;;;;;;10.10;1.70;;;;;;;12.48;100.00;95674.19;10317269;28;20213;-74
2022/09/17 13:15:56;;;;;;;8.65;2.60;;;;;;;13.18;94.89;95658.28;10333601;28;20295;-74
2022/09/17 13:21:12;;;;;;;7.53;1.30;;;;;;;14.63;82.33;95575.13;10315388;28;20225;-74
2022/09/17 13:26:17;;;;;;;2.83;1.67;;;;;;;14.58;76.48;95535.41;10316038;28;20208;-74
2022/09/17 13:31:43;;;;;;;5.78;1.30;;;;;;;14.11;80.07;95595.34;10332012;28;20194;-73
2022/09/17 13:36:46;;;;;;;7.10;1.40;;;;;;;14.01;77.72;95572.06;10331903;28;20214;-73
2022/09/17 13:41:46;;;;;;;5.55;1.48;;;;;;;15.92;71.86;95535.22;10332236;28;20226;-73
2022/09/17 13:46:47;;;;;;;8.93;1.30;;;;;;;13.87;70.92;95516.81;10332196;28;20206;-72
2022/09/17 13:51:48;;;;;;;6.10;1.90;;;;;;;15.09;72.11;95542.41;10331928;28;20213;-73
2022/09/17 13:57:06;;;;;;;7.00;1.73;;;;;;;13.47;72.64;95537.13;10331679;28;20193;-72
2022/09/17 14:02:06;;;;;;;7.97;1.55;;;;;;;12.58;82.34;95658.03;10314179;28;20248;-73
2022/09/17 14:07:22;;;;;;;5.57;2.13;;;;;;;13.00;79.54;95610.69;10331629;28;20200;-72
2022/09/17 14:12:43;;;;;;;11.32;1.63;;;;;;;14.49;72.79;95519.00;10330937;28;20194;-72
2022/09/17 14:17:51;;;;;;;6.20;1.75;;;;;;;12.75;81.75;95642.75;10336912;28;20225;-73
2022/09/17 14:22:59;;;;;;;6.05;1.85;;;;;;;13.76;77.62;95575.34;10330725;28;20217;-73
2022/09/17 14:28:07;;;;;;;3.83;1.42;;;;;;;14.78;76.79;95594.13;10313571;28;20205;-73
2022/09/17 14:33:16;;;;;;;12.57;1.98;;;;;;;14.87;72.65;95546.41;10312451;28;20193;-72
2022/09/17 14:38:36;;;;;;;8.93;1.80;;;;;;;15.24;71.09;95546.56;10312874;28;20243;-73
2022/09/17 14:43:42;;;;;;;8.43;2.10;;;;;;;13.99;71.56;95526.69;10329753;28;20689;-73
2022/09/17 14:48:42;;;;;;;10.13;2.10;;;;;;;13.11;77.44;95611.91;10330180;28;20598;-72
2022/09/17 14:53:47;;;;;;;6.40;1.92;;;;;;;13.50;76.96;95603.28;10329539;28;20265;-71
2022/09/17 14:58:52;;;;;;;6.20;1.50;;;;;;;12.28;80.04;95608.41;10329445;28;20266;-73
2022/09/17 15:04:11;;;;;;;9.13;1.70;;;;;;;11.89;83.21;95624.69;10311548;28;20358;-73
2022/09/17 15:09:15;;;;;;;7.93;1.88;;;;;;;12.64;81.07;95580.28;10329384;28;20220;-73
2022/09/17 15:14:21;;;;;;;9.52;1.80;;;;;;;11.91;84.36;95614.81;10328517;28;20202;-72
2022/09/17 15:19:27;;;;;;;7.53;1.75;;;;;;;12.72;81.45;95580.06;10311560;28;20186;-72
2022/09/17 15:24:53;;;;;;;9.82;1.65;;;;;;;15.65;71.29;95490.59;10327920;28;20325;-73
2022/09/17 15:29:57;;;;;;;9.13;1.52;;;;;;;15.99;62.90;95397.81;10311655;28;20694;-72
2022/09/17 15:35:12;;;;;;;4.13;1.20;;;;;;;16.70;56.88;95343.28;10326343;28;20210;-74
2022/09/17 15:40:34;;;;;;;8.65;1.45;;;;;;;15.36;58.62;95377.78;10327773;28;20229;-73
2022/09/17 15:45:37;;;;;;;4.63;1.38;;;;;;;16.05;57.21;95371.31;10309786;28;20645;-73
2022/09/17 15:50:52;;;;;;;7.38;1.75;;;;;;;15.67;57.98;95388.19;10327514;28;20190;-73
2022/09/17 15:56:08;;;;;;;5.50;1.30;;;;;;;14.99;61.76;95460.31;10309744;28;20193;-73
2022/09/17 16:01:14;;;;;;;8.82;2.20;;;;;;;13.83;63.09;95456.91;10309853;28;20245;-73
2022/09/17 16:06:17;;;;;;;7.63;1.88;;;;;;;12.71;68.75;95539.06;10327200;28;20274;-73
2022/09/17 16:11:29;;;;;;;8.80;1.77;;;;;;;11.37;73.79;95584.75;10326983;28;20280;-73
2022/09/17 16:16:34;;;;;;;15.60;4.65;;;;;;;11.03;75.06;95581.03;10327053;28;20194;-73
2022/09/17 16:21:35;;;;;;;8.32;2.85;;;;;;;10.94;75.91;95582.97;10326726;28;20765;-73
2022/09/17 16:26:35;;;;;;;14.27;2.72;;;;;;;10.72;76.70;95579.53;10326914;28;20284;-73
2022/09/17 16:31:35;;;;;;;6.28;1.45;;;;;;;10.33;79.63;95607.66;10326697;28;20193;-73
2022/09/17 16:36:36;;;;;;;6.73;1.83;;;;;;;9.95;82.04;95626.06;10326822;28;20702;-73
2022/09/17 16:41:36;;;;;;;7.17;2.17;;;;;;;10.12;81.72;95610.19;10326349;28;20756;-73
2022/09/17 16:46:36;;;;;;;9.87;1.87;;;;;;;9.90;84.05;95646.72;10326706;28;20626;-73
2022/09/17 16:51:37;;;;;;;5.40;1.50;;;;;;;9.47;87.36;95669.97;10326129;28;20826;-73
2022/09/17 16:56:37;;;;;;;9.50;1.53;;;;;;;9.45;89.95;95675.38;10326573;28;20666;-72
2022/09/17 17:01:38;;;;;;;8.97;1.57;;;;;;;9.36;91.32;95678.22;10325707;28;20324;-73
2022/09/17 17:06:38;;;;;;;10.10;1.80;;;;;;;9.24;91.69;95683.03;10326315;28;20197;-72
2022/09/17 17:11:38;;;;;;;8.67;1.57;;;;;;;9.31;90.42;95659.63;10333241;28;20194;-73
2022/09/17 17:16:39;;;;;;;7.63;1.60;;;;;;;9.31;88.52;95641.34;10333273;28;20248;-73
2022/09/17 17:21:40;;;;;;;9.27;1.93;;;;;;;9.30;85.96;95645.75;10332793;28;20774;-73
2022/09/17 17:26:40;;;;;;;7.23;1.40;;;;;;;9.17;85.37;95645.50;10320185;28;20284;-73
2022/09/17 17:31:40;;;;;;;5.13;1.23;;;;;;;9.07;85.47;95653.59;10332395;28;20193;-73
2022/09/17 17:36:41;;;;;;;5.10;1.00;;;;;;;8.90;86.94;95687.63;10332160;28;20205;-73
2022/09/17 17:41:41;;;;;;;2.17;1.00;;;;;;;8.68;88.24;95701.44;10332097;28;20220;-73
2022/09/17 17:46:42;;;;;;;3.97;1.30;;;;;;;8.54;89.38;95705.56;10331983;28;20217;-73
2022/09/17 17:51:43;;;;;;;3.80;1.10;;;;;;;8.38;90.96;95709.03;10331864;28;20670;-73
2022/09/17 17:56:44;;;;;;;2.13;0.93;;;;;;;8.26;91.63;95712.97;10332036;28;20224;-73
2022/09/17 18:01:44;;;;;;;6.73;2.80;;;;;;;8.10;92.32;95716.41;10331111;28;20242;-73
2022/09/17 18:06:46;;;;;;;3.20;1.13;;;;;;;7.90;92.96;95734.22;10331638;28;20190;-73
2022/09/17 18:11:47;;;;;;;4.00;1.00;;;;;;;7.93;93.32;95732.09;10313594;28;20808;-73
2022/09/17 18:16:48;;;;;;;3.63;1.20;;;;;;;7.79;94.08;95728.34;10331312;28;20336;-73
2022/09/17 18:21:48;;;;;;;1.50;0.90;;;;;;;7.77;94.83;95726.91;10330460;28;20283;-73
2022/09/17 18:26:49;;;;;;;2.30;0.80;;;;;;;7.63;95.81;95728.34;10330707;28;20658;-73
2022/09/17 18:31:49;;;;;;;4.43;1.20;;;;;;;7.67;95.49;95722.66;10330343;28;20608;-73
2022/09/17 18:36:51;;;;;;;1.70;0.80;;;;;;;7.63;95.52;95728.34;10329927;28;20661;-72
2022/09/17 18:41:51;;;;;;;2.10;0.80;;;;;;;7.58;96.39;95733.22;10329921;28;20257;-73
2022/09/17 18:46:51;;;;;;;3.97;0.90;;;;;;;7.53;96.54;95733.72;10330046;28;20618;-73
2022/09/17 18:51:52;;;;;;;4.47;1.00;;;;;;;7.45;96.93;95736.31;10329694;28;20694;-72
2022/09/17 18:56:52;;;;;;;6.73;1.20;;;;;;;7.56;97.28;95736.00;10329340;28;20654;-73
2022/09/17 19:01:52;;;;;;;2.00;1.10;;;;;;;7.45;97.82;95738.94;10327312;28;20777;-73
2022/09/17 19:06:53;;;;;;;4.10;0.90;;;;;;;7.44;99.21;95739.88;10329305;28;20234;-72
2022/09/17 19:11:53;;;;;;;3.03;1.00;;;;;;;7.53;99.94;95740.72;10328700;28;20190;-73
2022/09/17 19:16:54;;;;;;;2.10;0.90;;;;;;;7.60;100.00;95733.91;10329131;28;20296;-73
2022/09/17 19:21:54;;;;;;;3.53;1.13;;;;;;;7.77;100.00;95740.72;10328074;28;20229;-73
2022/09/17 19:26:54;;;;;;;2.73;1.00;;;;;;;7.77;100.00;95753.78;10328843;28;20189;-72
2022/09/17 19:31:55;;;;;;;2.73;1.10;;;;;;;7.84;100.00;95774.78;10327718;28;20274;-73
2022/09/17 19:36:55;;;;;;;4.53;1.33;;;;;;;7.36;100.00;95816.25;10326245;28;20217;-74
2022/09/17 19:41:55;;;;;;;1.87;0.87;;;;;;;6.89;100.00;95809.75;10327652;28;20325;-74
2022/09/17 19:46:56;;;;;;;4.73;0.87;;;;;;;6.78;100.00;95818.66;10327929;28;20218;-73
2022/09/17 19:51:56;;;;;;;2.17;0.80;;;;;;;6.54;100.00;95814.13;10327737;28;20185;-73
2022/09/17 19:56:56;;;;;;;1.77;0.80;;;;;;;6.42;100.00;95794.53;10327417;28;20193;-73
2022/09/17 20:01:57;;;;;;;0.83;0.70;;;;;;;6.39;100.00;95793.03;10326873;28;20241;-73
2022/09/17 20:07:00;;;;;;;3.30;1.23;;;;;;;6.32;100.00;95789.41;10327439;28;20197;-73
2022/09/17 20:12:01;;;;;;;2.87;0.80;;;;;;;6.41;100.00;95790.28;10326782;28;20681;-72
2022/09/17 20:17:01;;;;;;;1.80;1.10;;;;;;;6.43;100.00;95791.78;10327298;28;20198;-73
2022/09/17 20:22:01;;;;;;;1.17;0.70;;;;;;;6.54;100.00;95792.47;10326975;28;20218;-73
2022/09/17 20:27:02;;;;;;;1.73;0.63;;;;;;;6.61;100.00;95775.28;10326900;28;20286;-73
2022/09/17 20:32:02;;;;;;;2.37;0.87;;;;;;;6.60;100.00;95776.25;10326680;28;20190;-73
2022/09/17 20:37:02;;;;;;;1.33;0.90;;;;;;;6.62;100.00;95770.91;10326288;28;20307;-74
2022/09/17 20:42:03;;;;;;;1.10;0.77;;;;;;;6.66;100.00;95772.19;10328259;28;20222;-73
2022/09/17 20:47:04;;;;;;;2.77;0.90;;;;;;;6.66;100.00;95782.63;10346160;28;20198;-73
2022/09/17 20:52:04;;;;;;;2.20;0.90;;;;;;;6.70;100.00;95784.75;10334041;28;20244;-74
2022/09/17 20:57:04;;;;;;;3.00;0.90;;;;;;;6.60;100.00;95774.47;10334460;28;20237;-73
2022/09/17 21:02:06;;;;;;;0.90;0.70;;;;;;;6.60;100.00;95763.25;10327916;28;20234;-74
2022/09/17 21:07:06;;;;;;;1.70;0.70;;;;;;;6.58;100.00;95770.38;10333526;28;20552;-74
2022/09/17 21:12:08;;;;;;;2.43;1.00;;;;;;;6.51;100.00;95774.56;10333776;28;20281;-74
2022/09/17 21:17:08;;;;;;;0.60;0.60;;;;;;;6.49;100.00;95774.72;10333260;28;20608;-74
2022/09/17 21:22:08;;;;;;;2.40;0.87;;;;;;;6.51;100.00;95769.34;10333082;28;20317;-74
2022/09/17 21:27:09;;;;;;;2.50;0.90;;;;;;;6.43;100.00;95762.31;10333185;28;20217;-74
2022/09/17 21:32:09;;;;;;;2.67;0.73;;;;;;;6.49;100.00;95755.69;10332721;28;20198;-74
2022/09/17 21:37:09;;;;;;;0.87;0.80;;;;;;;6.48;100.00;95748.84;10332554;28;20221;-74
2022/09/17 21:42:10;;;;;;;5.33;1.13;;;;;;;6.51;100.00;95753.75;10332136;28;20232;-74
2022/09/17 21:47:10;;;;;;;2.63;0.80;;;;;;;6.47;100.00;95753.25;10332810;28;20281;-74
2022/09/17 21:52:11;;;;;;;5.47;1.20;;;;;;;6.47;100.00;95765.44;10314541;28;20190;-75
2022/09/17 21:57:11;;;;;;;3.30;1.00;;;;;;;6.46;100.00;95756.81;10331585;28;20265;-75
2022/09/17 22:02:12;;;;;;;5.00;1.07;;;;;;;6.49;100.00;95758.28;10331526;28;20332;-74
2022/09/17 22:07:12;;;;;;;2.97;1.20;;;;;;;6.46;100.00;95749.00;10331320;28;20252;-74
2022/09/17 22:12:12;;;;;;;5.57;1.00;;;;;;;6.47;100.00;95736.84;10331418;28;20280;-75
2022/09/17 22:17:13;;;;;;;2.23;1.00;;;;;;;6.39;100.00;95745.41;10331124;28;20250;-75
2022/09/17 22:22:14;;;;;;;4.20;1.23;;;;;;;6.47;100.00;95770.66;10330792;28;20236;-74
2022/09/17 22:27:14;;;;;;;2.97;1.00;;;;;;;6.46;100.00;95750.81;10330835;28;20190;-75
2022/09/17 22:32:14;;;;;;;2.03;1.07;;;;;;;6.46;100.00;95748.19;10330289;28;20194;-74
2022/09/17 22:37:15;;;;;;;4.13;0.93;;;;;;;6.33;100.00;95746.84;10330173;28;20556;-74
2022/09/17 22:42:16;;;;;;;3.87;0.80;;;;;;;6.30;100.00;95747.13;10329437;28;20655;-76
2022/09/17 22:47:16;;;;;;;6.13;1.00;;;;;;;6.29;100.00;95755.91;10330340;28;20190;-75
2022/09/17 22:52:17;;;;;;;0.77;0.73;;;;;;;6.24;100.00;95755.56;10329199;28;20343;-75
2022/09/17 22:57:17;;;;;;;0.80;0.63;;;;;;;6.18;100.00;95743.16;10329983;28;20200;-75
2022/09/17 23:02:18;;;;;;;1.83;0.60;;;;;;;6.13;100.00;95738.44;10329025;28;20309;-75
2022/09/17 23:07:18;;;;;;;5.07;0.80;;;;;;;6.06;100.00;95740.84;10328776;28;20186;-75
2022/09/17 23:12:20;;;;;;;4.07;0.90;;;;;;;6.06;100.00;95740.00;10328829;28;20194;-75
2022/09/17 23:17:20;;;;;;;1.17;0.80;;;;;;;6.15;100.00;95738.28;10328568;28;20233;-75
2022/09/17 23:22:22;;;;;;;3.37;0.80;;;;;;;6.11;100.00;95745.56;10328307;28;20317;-74
2022/09/17 23:27:22;;;;;;;3.00;0.77;;;;;;;6.04;100.00;95753.16;10328518;28;20265;-74
2022/09/17 23:32:22;;;;;;;4.77;1.00;;;;;;;6.00;100.00;95744.03;10327758;28;20182;-76
2022/09/17 23:37:23;;;;;;;3.27;1.10;;;;;;;6.07;100.00;95744.25;10327840;28;20213;-75